Time;durP1;ratioP1;P1;durP2;ratioP2;P2;SDS_P1;SDS_P2;PMS_P1;PMS_P2;Temp;Humidity;BMP_temperature;BMP_pressure;BME280_temperature;BME280_humidity;BME280_pressure;Samples;Min_cycle;Max_cycle;Signal;HPM_P1;HPM_P2
2021/03/23 01:42:52;;;;;;;;;;;;;;;1.84;79.28;101549.00;6096879;23;19936;-76
2021/03/23 01:49:59;;;;;;;;;;;;;;;1.82;79.38;101550.28;6096985;23;19916;-76
2021/03/23 01:57:02;;;;;;;;;;;;;;;;;;;;;
2021/03/23 02:28:58;;;;;;;;;;;;;;;1.38;79.78;101525.16;6134410;23;20389;-76
2021/03/23 02:54:47;;;;;;;;;;;;;;;;;;;;;
2021/03/23 03:01:58;;;;;;;;;;;;;;;;;;;;;
2021/03/23 03:12:55;;;;;;;;;;;;;;;0.93;80.06;101502.97;5096290;27;20381;-74
2021/03/23 03:15:55;;;;;;;;;;;;;;;0.95;79.95;101500.88;4992907;28;19917;-74
2021/03/23 03:18:33;;;;;;;;;;;;;;;0.90;80.07;101492.44;4993679;28;19922;-74
2021/03/23 03:21:45;;;;;;;;;;;;;;;0.90;80.03;101503.41;4984178;28;19921;-75
2021/03/23 03:27:27;;;;;;;;;;;;;;;0.87;79.95;101492.88;4991574;28;19975;-74
2021/03/23 03:30:32;;;;;;;;;;;;;;;;;;;;;
2021/03/23 03:33:19;;;;;;;;;;;;;;;;;;;;;
2021/03/23 03:36:04;;;;;;;;;;;;;;;0.82;79.60;101484.44;5007528;28;19913;-74
2021/03/23 03:39:10;;;;;;;;;;;;;;;0.76;79.81;101485.25;4993529;28;20460;-74
2021/03/23 03:42:01;;;;;;;;;;;;;;;0.76;79.62;101485.25;5044738;28;19917;-74
2021/03/23 03:44:44;;;;;;;;;;;;;;;0.76;79.95;101482.53;5025742;28;20011;-74
2021/03/23 03:47:39;;;;;;;;;;;;;;;0.69;79.83;101476.19;5045604;28;19913;-74
2021/03/23 03:50:28;;;;;;;;;;;;;;;;;;;;;
2021/03/23 03:56:41;;;;;;;;;;;;;;;0.62;79.82;101479.75;5053085;28;19917;-74
2021/03/23 03:59:28;;;;;;;;;;;;;;;0.56;80.14;101475.09;5050500;28;19913;-76
2021/03/23 04:02:05;;;;;;;;;;;;;;;0.55;80.00;101478.84;5044707;28;19933;-76
2021/03/23 04:04:30;;;;;;;;;;;;;;;0.58;79.99;101474.88;5005821;28;19925;-77
2021/03/23 04:07:25;;;;;;;;;;;;;;;0.56;79.83;101463.31;5014005;28;19936;-76
2021/03/23 04:10:08;;;;;;;;;;;;;;;0.43;80.33;101480.50;5017104;28;19917;-77
2021/03/23 04:16:33;;;;;;;;;;;;;;;0.42;80.05;101467.91;4995810;28;19924;-76
2021/03/23 04:19:41;;;;;;;;;;;;;;;0.41;79.85;101474.38;5005180;28;19933;-76
2021/03/23 04:22:15;;;;;;;;;;;;;;;0.37;80.07;101478.59;4986125;28;19953;-76
2021/03/23 04:31:10;;;;;;;;;;;;;;;0.30;80.02;101473.06;5037447;28;19928;-76
2021/03/23 04:33:49;;;;;;;;;;;;;;;0.27;80.08;101464.44;5036422;28;20285;-76
2021/03/23 04:40:13;;;;;;;;;;;;;;;0.24;79.95;101470.31;5040195;28;19917;-76
2021/03/23 04:43:01;;;;;;;;;;;;;;;0.19;80.12;101462.72;5035509;28;19924;-76
2021/03/23 04:46:01;;;;;;;;;;;;;;;0.19;80.17;101463.56;5030589;28;20009;-76
2021/03/23 04:49:12;;;;;;;;;;;;;;;0.16;80.04;101461.22;5030162;28;19972;-76
2021/03/23 04:52:01;;;;;;;;;;;;;;;0.17;80.05;101457.47;5049559;28;19952;-76
2021/03/23 04:54:44;;;;;;;;;;;;;;;0.10;80.01;101450.28;4985879;28;19917;-76
2021/03/23 04:57:54;;;;;;;;;;;;;;;;;;;;;
2021/03/23 05:00:57;;;;;;;;;;;;;;;0.09;80.20;101465.00;4999518;28;19924;-77
2021/03/23 05:03:36;;;;;;;;;;;;;;;0.06;80.01;101463.50;5007089;28;19968;-76
2021/03/23 05:06:26;;;;;;;;;;;;;;;;;;;;;
2021/03/23 05:09:46;;;;;;;;;;;;;;;;;;;;;
2021/03/23 05:12:48;;;;;;;;;;;;;;;-0.06;80.30;101465.94;5014691;28;19922;-77
2021/03/23 05:15:50;;;;;;;;;;;;;;;-0.05;80.24;101464.06;5003367;28;19921;-76
2021/03/23 05:18:42;;;;;;;;;;;;;;;-0.07;80.14;101468.88;5012685;28;19920;-76
2021/03/23 05:21:23;;;;;;;;;;;;;;;-0.11;80.33;101462.13;5016214;28;20292;-76
2021/03/23 05:23:54;;;;;;;;;;;;;;;-0.11;80.12;101467.56;5021974;28;19917;-76
2021/03/23 05:26:29;;;;;;;;;;;;;;;-0.13;80.33;101461.50;5038174;28;19927;-76
2021/03/23 05:28:57;;;;;;;;;;;;;;;-0.15;80.13;101466.31;5038153;28;19913;-76
2021/03/23 05:32:02;;;;;;;;;;;;;;;-0.18;80.12;101459.34;5031017;28;20011;-76
2021/03/23 05:34:38;;;;;;;;;;;;;;;;;;;;;
2021/03/23 05:37:21;;;;;;;;;;;;;;;-0.18;80.39;101455.78;5029534;28;20003;-74
2021/03/23 05:39:58;;;;;;;;;;;;;;;-0.21;80.41;101457.03;5017658;28;19921;-74
2021/03/23 05:42:50;;;;;;;;;;;;;;;-0.23;80.39;101461.84;5030551;28;19913;-73
2021/03/23 05:45:33;;;;;;;;;;;;;;;-0.24;80.30;101455.53;5030343;28;20459;-74
2021/03/23 05:48:13;;;;;;;;;;;;;;;-0.27;80.07;101463.28;5037300;28;19913;-74
2021/03/23 05:50:42;;;;;;;;;;;;;;;-0.30;80.46;101464.53;5035778;28;19925;-74
2021/03/23 05:56:57;;;;;;;;;;;;;;;-0.30;80.27;101470.00;5058238;28;19924;-74
2021/03/23 05:59:38;;;;;;;;;;;;;;;-0.33;80.24;101473.13;5022975;28;19921;-74
2021/03/23 06:02:45;;;;;;;;;;;;;;;-0.36;80.35;101476.25;5027841;28;20016;-74
2021/03/23 06:05:44;;;;;;;;;;;;;;;-0.37;80.33;101473.72;5009896;28;19924;-74
2021/03/23 06:08:16;;;;;;;;;;;;;;;-0.39;80.22;101479.38;5013288;28;19918;-73
2021/03/23 06:10:45;;;;;;;;;;;;;;;-0.39;80.26;101482.09;4953980;28;19922;-73
2021/03/23 06:13:16;;;;;;;;;;;;;;;-0.41;80.19;101481.47;4973135;28;19918;-73
2021/03/23 06:16:01;;;;;;;;;;;;;;;-0.44;80.53;101476.41;4959244;28;20021;-73
2021/03/23 06:18:39;;;;;;;;;;;;;;;-0.43;80.68;101482.69;4977108;28;19920;-73
2021/03/23 06:21:17;;;;;;;;;;;;;;;-0.40;80.58;101485.84;4957743;28;19944;-73
2021/03/23 06:24:00;;;;;;;;;;;;;;;-0.42;80.54;101478.91;4957094;28;19960;-73
2021/03/23 06:26:37;;;;;;;;;;;;;;;-0.40;80.76;101485.03;4966896;28;19922;-73
2021/03/23 06:29:10;;;;;;;;;;;;;;;-0.38;80.65;101491.97;4976420;28;19949;-73
2021/03/23 06:31:53;;;;;;;;;;;;;;;-0.33;80.71;101492.22;4956289;28;19918;-73
2021/03/23 06:34:23;;;;;;;;;;;;;;;-0.29;80.68;101504.44;4997709;28;19979;-73
2021/03/23 06:36:49;;;;;;;;;;;;;;;-0.21;80.63;101505.34;4997807;28;19925;-73
2021/03/23 06:39:39;;;;;;;;;;;;;;;-0.11;80.52;101503.06;5030260;28;19917;-73
2021/03/23 06:42:15;;;;;;;;;;;;;;;-0.10;80.87;101497.44;5008762;28;19917;-74
2021/03/23 06:44:52;;;;;;;;;;;;;;;-0.07;81.08;101504.38;4999450;28;19922;-73
2021/03/23 06:47:39;;;;;;;;;;;;;;;-0.03;81.59;101508.38;4980495;28;19925;-73
2021/03/23 06:50:26;;;;;;;;;;;;;;;0.01;81.91;101517.88;5030594;28;20036;-74
2021/03/23 06:53:33;;;;;;;;;;;;;;;0.08;81.84;101505.09;5012195;28;19992;-74
2021/03/23 06:56:21;;;;;;;;;;;;;;;0.26;82.57;101518.25;4992693;28;19918;-74
2021/03/23 06:59:09;;;;;;;;;;;;;;;0.43;82.93;101518.75;5011297;28;20453;-74
2021/03/23 07:01:47;;;;;;;;;;;;;;;0.54;83.34;101520.91;4975986;28;19917;-74
2021/03/23 07:04:22;;;;;;;;;;;;;;;0.69;83.74;101515.28;5000344;28;19924;-74
2021/03/23 07:07:09;;;;;;;;;;;;;;;0.87;83.67;101517.47;4991270;28;19922;-74
2021/03/23 07:13:08;;;;;;;;;;;;;;;;;;;;;
2021/03/23 07:15:48;;;;;;;;;;;;;;;1.36;83.47;101524.53;5014902;28;19917;-74
2021/03/23 07:18:29;;;;;;;;;;;;;;;1.49;83.00;101524.53;4981941;28;19917;-74
2021/03/23 07:21:07;;;;;;;;;;;;;;;1.62;82.74;101523.72;5004471;28;20350;-74
2021/03/23 07:23:41;;;;;;;;;;;;;;;1.77;82.76;101528.97;4993242;28;20012;-74
2021/03/23 07:29:47;;;;;;;;;;;;;;;2.09;82.46;101532.75;5021517;28;19917;-74
2021/03/23 07:40:26;;;;;;;;;;;;;;;2.69;81.85;101540.81;4870451;29;19919;-75
2021/03/23 07:46:06;;;;;;;;;;;;;;;3.01;82.52;101549.13;4917997;29;19961;-74
2021/03/23 07:48:52;;;;;;;;;;;;;;;3.19;82.80;101556.66;4912336;29;19998;-74
2021/03/23 07:51:50;;;;;;;;;;;;;;;3.35;82.36;101559.72;4910819;29;19978;-74
2021/03/23 07:54:31;;;;;;;;;;;;;;;3.56;82.75;101560.41;4908732;29;19919;-74
2021/03/23 07:56:59;;;;;;;;;;;;;;;3.73;83.81;101553.34;4893771;29;19919;-74
2021/03/23 07:59:42;;;;;;;;;;;;;;;3.91;82.98;101548.97;4889285;29;20300;-76
2021/03/23 08:02:36;;;;;;;;;;;;;;;4.09;83.34;101551.75;4904493;29;19923;-74
2021/03/23 08:05:16;;;;;;;;;;;;;;;;;;;;;
2021/03/23 08:08:04;;;;;;;;;;;;;;;4.48;81.62;101544.16;4894175;29;19926;-74
2021/03/23 08:10:41;;;;;;;;;;;;;;;4.68;81.43;101533.78;4991669;28;19917;-74
2021/03/23 08:13:51;;;;;;;;;;;;;;;4.91;81.17;101532.25;5031113;28;19921;-74
2021/03/23 08:16:26;;;;;;;;;;;;;;;5.12;80.66;101537.22;5020944;28;19920;-74
2021/03/23 08:19:00;;;;;;;;;;;;;;;5.30;81.38;101530.00;5016913;28;19917;-74
2021/03/23 08:21:48;;;;;;;;;;;;;;;5.47;80.33;101528.25;5037125;28;19921;-74
2021/03/23 08:33:45;;;;;;;;;;;;;;;6.35;76.64;101534.88;5046880;28;19928;-75
2021/03/23 08:36:42;;;;;;;;;;;;;;;6.49;76.17;101532.69;5004044;28;19913;-75
2021/03/23 08:39:53;;;;;;;;;;;;;;;;;;;;;
2021/03/23 08:42:39;;;;;;;;;;;;;;;;;;;;;
2021/03/23 08:45:51;;;;;;;;;;;;;;;6.99;75.07;101529.31;5022063;28;20333;-75
2021/03/23 08:49:10;;;;;;;;;;;;;;;;;;;;;
2021/03/23 08:52:27;;;;;;;;;;;;;;;7.33;75.23;101541.34;4967814;28;20326;-75
2021/03/23 08:55:41;;;;;;;;;;;;;;;;;;;;;
2021/03/23 08:59:08;;;;;;;;;;;;;;;7.81;72.78;101551.03;4973800;28;19918;-75
2021/03/23 09:05:58;;;;;;;;;;;;;;;8.12;72.23;101551.56;4882565;29;20363;-74
2021/03/23 09:09:13;;;;;;;;;;;;;;;8.41;70.03;101548.69;4918337;29;20009;-74
2021/03/23 09:19:31;;;;;;;;;;;;;;;8.90;68.58;101549.66;4881410;29;19916;-74
2021/03/23 09:22:25;;;;;;;;;;;;;;;8.98;68.75;101551.16;4842552;29;19955;-74
2021/03/23 09:29:01;;;;;;;;;;;;;;;9.14;69.01;101539.16;4895413;29;19927;-74
2021/03/23 09:32:09;;;;;;;;;;;;;;;9.21;69.77;101540.88;4880190;29;19948;-74
2021/03/23 09:38:40;;;;;;;;;;;;;;;9.44;68.14;101540.56;4899185;29;19958;-74
2021/03/23 09:41:43;;;;;;;;;;;;;;;9.58;67.87;101530.75;4873190;29;20273;-74
2021/03/23 09:44:47;;;;;;;;;;;;;;;9.70;67.13;101538.06;4944411;28;19922;-74
2021/03/23 09:47:38;;;;;;;;;;;;;;;9.81;65.98;101539.84;4922801;29;19958;-75
2021/03/23 09:51:04;;;;;;;;;;;;;;;9.91;65.30;101539.91;4935842;29;19915;-74
2021/03/23 09:53:54;;;;;;;;;;;;;;;10.06;64.19;101528.09;4917840;29;19927;-74
2021/03/23 09:56:51;;;;;;;;;;;;;;;10.15;64.00;101534.84;4917118;29;19918;-74
2021/03/23 09:59:37;;;;;;;;;;;;;;;10.21;64.65;101528.19;4919154;29;20005;-74
2021/03/23 10:02:29;;;;;;;;;;;;;;;10.24;63.63;101532.38;4930226;29;19938;-74
2021/03/23 10:05:28;;;;;;;;;;;;;;;10.32;64.75;101528.31;4934258;29;19918;-74
2021/03/23 10:08:09;;;;;;;;;;;;;;;10.38;64.81;101539.19;4907167;29;19942;-74
2021/03/23 10:10:40;;;;;;;;;;;;;;;10.46;63.98;101529.50;4901833;29;19919;-74
2021/03/23 10:13:26;;;;;;;;;;;;;;;10.50;63.42;101537.06;4937490;29;19922;-74
2021/03/23 10:16:06;;;;;;;;;;;;;;;10.60;64.18;101535.44;4951907;28;19918;-74
2021/03/23 10:19:12;;;;;;;;;;;;;;;10.63;64.18;101538.50;4972308;28;20678;-75
2021/03/23 10:21:55;;;;;;;;;;;;;;;;;;;;;
2021/03/23 10:27:55;;;;;;;;;;;;;;;10.80;62.90;101527.19;5015915;28;19917;-75
2021/03/23 10:30:29;;;;;;;;;;;;;;;10.85;63.13;101520.81;4998080;28;20083;-74
2021/03/23 10:32:55;;;;;;;;;;;;;;;10.87;63.16;101513.88;5014451;28;19937;-72
2021/03/23 10:35:24;;;;;;;;;;;;;;;10.94;62.87;101513.63;5010829;28;20000;-72
2021/03/23 10:38:08;;;;;;;;;;;;;;;11.00;63.88;101518.09;5013730;28;19929;-72
2021/03/23 10:40:34;;;;;;;;;;;;;;;11.13;63.57;101516.75;5025175;28;19913;-72
2021/03/23 10:43:00;;;;;;;;;;;;;;;11.23;62.93;101516.78;5017543;28;19960;-72
2021/03/23 10:45:34;;;;;;;;;;;;;;;11.32;63.88;101509.56;5014986;28;19924;-72
2021/03/23 10:48:01;;;;;;;;;;;;;;;11.34;62.28;101514.88;5026636;28;19952;-72
2021/03/23 10:50:26;;;;;;;;;;;;;;;11.41;61.82;101513.47;5014596;28;19985;-72
2021/03/23 10:52:52;;;;;;;;;;;;;;;11.49;62.55;101514.91;5017428;28;20385;-72
2021/03/23 10:55:26;;;;;;;;;;;;;;;11.59;62.37;101498.22;5017277;28;19918;-72
2021/03/23 10:57:59;;;;;;;;;;;;;;;11.70;61.71;101504.63;5015261;28;19978;-72
2021/03/23 11:00:27;;;;;;;;;;;;;;;11.74;61.43;101502.13;5020018;28;19953;-72
2021/03/23 11:02:52;;;;;;;;;;;;;;;11.79;61.53;101496.56;5016784;28;19949;-72
2021/03/23 11:05:19;;;;;;;;;;;;;;;11.88;61.00;101491.31;5015300;28;19917;-72
2021/03/23 11:07:58;;;;;;;;;;;;;;;11.94;61.69;101495.75;5004545;28;19949;-72
2021/03/23 11:10:25;;;;;;;;;;;;;;;12.01;60.85;101486.00;5024458;28;19918;-72
2021/03/23 11:12:51;;;;;;;;;;;;;;;12.09;60.90;101484.59;5030566;28;19925;-72
2021/03/23 11:19:25;;;;;;;;;;;;;;;;;;;;;
2021/03/23 11:24:55;;;;;;;;;;;;;;;12.47;62.26;101474.75;5009932;28;19918;-72
2021/03/23 11:28:17;;;;;;;;;;;;;;;12.57;60.52;101485.03;5003211;28;19918;-72
2021/03/23 11:30:42;;;;;;;;;;;;;;;12.70;60.47;101473.31;4932803;29;20029;-72
2021/03/23 11:33:09;;;;;;;;;;;;;;;12.75;59.96;101476.03;4932693;29;19931;-71
2021/03/23 11:35:34;;;;;;;;;;;;;;;12.83;59.62;101474.63;4925064;29;20485;-72
2021/03/23 11:38:01;;;;;;;;;;;;;;;12.87;59.03;101483.22;4929734;29;20018;-72
2021/03/23 11:40:26;;;;;;;;;;;;;;;12.97;59.63;101472.88;4930314;29;20379;-72
2021/03/23 11:42:52;;;;;;;;;;;;;;;13.01;58.54;101473.16;4922723;29;19918;-72
2021/03/23 11:45:38;;;;;;;;;;;;;;;12.97;59.38;101460.91;4931292;29;20060;-73
2021/03/23 11:48:09;;;;;;;;;;;;;;;12.99;58.48;101461.44;4908330;29;19919;-74
2021/03/23 11:50:35;;;;;;;;;;;;;;;13.02;59.65;101455.28;4917869;29;19922;-73
2021/03/23 11:53:00;;;;;;;;;;;;;;;13.06;60.19;101442.44;4921928;29;19943;-74
2021/03/23 11:55:38;;;;;;;;;;;;;;;13.12;59.82;101448.81;4935119;28;19918;-74
2021/03/23 11:58:07;;;;;;;;;;;;;;;13.23;58.35;101458.78;4940088;29;19918;-74
2021/03/23 12:00:33;;;;;;;;;;;;;;;13.26;57.43;101443.44;4967408;28;19942;-74
2021/03/23 12:02:59;;;;;;;;;;;;;;;13.34;58.78;101442.84;5058236;28;19976;-74
2021/03/23 12:05:24;;;;;;;;;;;;;;;13.43;59.60;101441.13;5040074;28;20462;-74
2021/03/23 12:08:13;;;;;;;;;;;;;;;13.42;58.35;101433.84;5012540;28;19921;-74
2021/03/23 12:10:43;;;;;;;;;;;;;;;13.46;59.03;101428.53;5055005;28;19929;-74
2021/03/23 12:13:24;;;;;;;;;;;;;;;13.43;57.98;101432.75;5055117;28;19924;-74
2021/03/23 12:16:03;;;;;;;;;;;;;;;13.47;59.00;101425.44;5043296;28;19917;-74
2021/03/23 12:18:32;;;;;;;;;;;;;;;13.50;59.63;101424.84;5039722;28;19917;-74
2021/03/23 12:20:59;;;;;;;;;;;;;;;13.55;57.94;101416.44;5040942;28;19924;-74
2021/03/23 12:23:25;;;;;;;;;;;;;;;13.60;57.75;101418.38;5007101;28;19917;-74
2021/03/23 12:25:51;;;;;;;;;;;;;;;13.63;57.65;101418.59;5014714;28;19923;-74
2021/03/23 12:28:17;;;;;;;;;;;;;;;13.68;56.69;101414.09;5025197;28;20016;-74
2021/03/23 12:30:44;;;;;;;;;;;;;;;13.74;57.11;101421.31;5039980;28;19965;-74
2021/03/23 12:33:12;;;;;;;;;;;;;;;13.84;57.18;101421.19;5031415;28;19920;-74
2021/03/23 12:35:38;;;;;;;;;;;;;;;13.90;57.73;101411.69;5042385;28;19925;-74
2021/03/23 12:38:04;;;;;;;;;;;;;;;13.98;57.74;101410.19;5011886;28;19996;-74
2021/03/23 12:40:30;;;;;;;;;;;;;;;14.08;57.74;101405.31;5039552;28;19917;-74
2021/03/23 12:42:56;;;;;;;;;;;;;;;14.13;58.37;101410.03;5021521;28;19916;-74
2021/03/23 12:45:34;;;;;;;;;;;;;;;14.17;56.55;101402.72;5038366;28;19916;-74
2021/03/23 12:47:59;;;;;;;;;;;;;;;14.19;57.38;101391.25;5011490;28;19956;-74
2021/03/23 12:50:24;;;;;;;;;;;;;;;14.20;57.51;101393.72;5051506;28;19916;-74
2021/03/23 12:52:50;;;;;;;;;;;;;;;14.22;57.72;101399.03;5008807;28;20368;-74
2021/03/23 12:55:17;;;;;;;;;;;;;;;14.28;58.00;101393.06;5043982;28;20273;-74
2021/03/23 12:57:42;;;;;;;;;;;;;;;14.33;58.35;101385.78;5056849;28;19912;-74
2021/03/23 13:00:19;;;;;;;;;;;;;;;14.35;58.01;101378.75;5021948;28;20361;-74
2021/03/23 13:02:44;;;;;;;;;;;;;;;14.37;57.93;101384.88;5034996;28;20281;-74
2021/03/23 13:05:10;;;;;;;;;;;;;;;14.41;56.73;101374.78;5020589;28;19921;-74
2021/03/23 13:07:39;;;;;;;;;;;;;;;14.50;57.10;101374.94;5036115;28;20538;-74
2021/03/23 13:10:06;;;;;;;;;;;;;;;14.55;56.76;101376.88;5046804;28;20361;-74
2021/03/23 13:12:32;;;;;;;;;;;;;;;14.59;56.43;101369.53;5060495;28;19987;-74
2021/03/23 13:14:57;;;;;;;;;;;;;;;14.57;56.74;101374.59;5055710;28;19917;-74
2021/03/23 13:17:24;;;;;;;;;;;;;;;14.57;57.59;101363.41;5038656;28;19919;-74
2021/03/23 13:19:49;;;;;;;;;;;;;;;14.59;57.02;101366.75;5055782;28;19975;-74
2021/03/23 13:22:16;;;;;;;;;;;;;;;14.61;57.38;101362.50;5024479;28;19916;-74
2021/03/23 13:24:42;;;;;;;;;;;;;;;14.68;56.21;101348.16;5041319;28;20000;-74
2021/03/23 13:27:30;;;;;;;;;;;;;;;14.77;57.49;101351.94;5055797;28;19924;-73
2021/03/23 13:29:56;;;;;;;;;;;;;;;14.87;57.55;101359.34;5030024;28;19917;-74
2021/03/23 13:32:24;;;;;;;;;;;;;;;14.98;57.27;101347.69;5059945;28;20481;-73
2021/03/23 13:34:52;;;;;;;;;;;;;;;15.04;57.69;101339.22;5019405;28;19917;-74
2021/03/23 13:37:21;;;;;;;;;;;;;;;15.06;57.96;101336.97;5046216;28;19952;-74
2021/03/23 13:40:19;;;;;;;;;;;;;;;15.09;58.28;101336.34;5039443;28;19916;-74
2021/03/23 13:42:47;;;;;;;;;;;;;;;15.15;57.95;101335.94;5004197;28;19920;-74
2021/03/23 13:45:15;;;;;;;;;;;;;;;15.19;56.62;101336.19;5021611;28;19921;-74
2021/03/23 13:47:43;;;;;;;;;;;;;;;15.24;57.47;101329.66;5027191;28;19990;-74
2021/03/23 13:50:08;;;;;;;;;;;;;;;15.26;58.29;101336.63;5028099;28;19928;-74
2021/03/23 13:52:37;;;;;;;;;;;;;;;15.29;57.79;101330.41;5021121;28;19927;-74
2021/03/23 13:55:23;;;;;;;;;;;;;;;15.31;57.82;101335.72;5036976;28;19979;-74
2021/03/23 13:57:48;;;;;;;;;;;;;;;15.38;58.31;101334.19;5035428;28;19925;-74
2021/03/23 14:00:18;;;;;;;;;;;;;;;15.37;56.11;101332.50;5038783;28;19921;-74
2021/03/23 14:02:46;;;;;;;;;;;;;;;15.37;55.64;101324.13;5052228;28;19982;-74
2021/03/23 14:05:15;;;;;;;;;;;;;;;15.42;56.07;101331.59;5030286;28;19921;-74
2021/03/23 14:07:42;;;;;;;;;;;;;;;15.36;54.44;101318.84;5027836;28;19928;-74
2021/03/23 14:10:08;;;;;;;;;;;;;;;15.38;56.04;101317.41;5034669;28;19916;-74
2021/03/23 14:12:35;;;;;;;;;;;;;;;15.36;56.15;101311.25;5033142;28;19975;-74
2021/03/23 14:15:03;;;;;;;;;;;;;;;15.37;56.67;101318.50;5046883;28;19924;-74
2021/03/23 14:17:34;;;;;;;;;;;;;;;15.29;55.49;101316.41;5020678;28;19919;-74
2021/03/23 14:20:02;;;;;;;;;;;;;;;15.30;56.39;101311.69;5046465;28;20259;-74
2021/03/23 14:22:29;;;;;;;;;;;;;;;15.23;56.80;101309.25;5022924;28;19920;-74
2021/03/23 14:24:55;;;;;;;;;;;;;;;15.19;55.84;101302.63;5015016;28;19917;-74
2021/03/23 14:27:23;;;;;;;;;;;;;;;15.11;56.07;101308.91;5035527;28;19912;-74
2021/03/23 14:29:49;;;;;;;;;;;;;;;15.03;55.87;101304.00;5022275;28;19923;-74
2021/03/23 14:32:14;;;;;;;;;;;;;;;15.02;56.69;101302.34;5037985;28;19928;-74
2021/03/23 14:34:40;;;;;;;;;;;;;;;15.01;58.84;101300.69;5021857;28;19956;-74
2021/03/23 14:37:08;;;;;;;;;;;;;;;14.96;57.18;101294.03;5054736;28;20003;-74
2021/03/23 14:39:38;;;;;;;;;;;;;;;14.99;59.15;101292.59;5044746;28;19917;-74
2021/03/23 14:42:04;;;;;;;;;;;;;;;15.02;58.90;101296.75;5022445;28;19912;-74
2021/03/23 14:44:31;;;;;;;;;;;;;;;15.04;60.04;101294.47;5011745;28;20367;-74
2021/03/23 14:47:00;;;;;;;;;;;;;;;15.02;59.00;101288.38;5034345;28;19947;-74
2021/03/23 14:49:28;;;;;;;;;;;;;;;14.98;58.01;101290.94;5019348;28;19916;-74
2021/03/23 14:51:53;;;;;;;;;;;;;;;14.93;58.85;101289.06;5020631;28;19920;-74
2021/03/23 14:54:21;;;;;;;;;;;;;;;14.88;57.29;101291.13;5022210;28;20410;-74
2021/03/23 14:56:50;;;;;;;;;;;;;;;14.91;58.92;101284.91;5020150;28;20277;-74
2021/03/23 14:59:16;;;;;;;;;;;;;;;14.90;59.56;101286.84;5047197;28;19978;-74
2021/03/23 15:01:44;;;;;;;;;;;;;;;14.86;58.73;101288.59;5021642;28;19912;-74
2021/03/23 15:04:09;;;;;;;;;;;;;;;14.83;58.11;101283.63;5041470;28;19921;-74
2021/03/23 15:06:37;;;;;;;;;;;;;;;14.79;59.09;101282.56;5008445;28;20015;-74
2021/03/23 15:09:12;;;;;;;;;;;;;;;14.78;60.72;101278.09;5036841;28;19978;-74
2021/03/23 15:11:43;;;;;;;;;;;;;;;14.72;57.87;101279.31;5052613;28;19921;-74
2021/03/23 15:14:15;;;;;;;;;;;;;;;14.69;59.05;101268.75;5047813;28;19916;-74
2021/03/23 15:16:41;;;;;;;;;;;;;;;14.64;60.09;101264.06;5006771;28;19928;-74
2021/03/23 15:19:06;;;;;;;;;;;;;;;14.67;61.87;101263.44;5044963;28;19917;-74
2021/03/23 15:21:33;;;;;;;;;;;;;;;14.67;61.38;101265.44;5044821;28;20331;-74
2021/03/23 15:23:58;;;;;;;;;;;;;;;14.68;61.73;101261.47;5035333;28;19999;-74
2021/03/23 15:26:27;;;;;;;;;;;;;;;14.66;60.14;101263.78;5047707;28;19967;-74
2021/03/23 15:28:52;;;;;;;;;;;;;;;14.61;58.57;101259.09;5037406;28;19919;-74
2021/03/23 15:31:18;;;;;;;;;;;;;;;14.62;60.51;101268.28;5020220;28;20020;-74
2021/03/23 15:33:43;;;;;;;;;;;;;;;14.56;59.26;101261.13;5021691;28;19913;-74
2021/03/23 15:36:19;;;;;;;;;;;;;;;14.56;60.89;101261.94;5036381;28;19952;-74
2021/03/23 15:38:47;;;;;;;;;;;;;;;14.55;61.62;101259.47;5028698;28;19925;-74
2021/03/23 15:41:12;;;;;;;;;;;;;;;14.54;61.84;101258.63;5062387;28;20007;-74
2021/03/23 15:43:38;;;;;;;;;;;;;;;14.51;60.34;101253.59;5037683;28;19964;-74
2021/03/23 15:46:06;;;;;;;;;;;;;;;14.48;58.99;101246.66;5022965;28;19924;-74
2021/03/23 15:48:31;;;;;;;;;;;;;;;14.46;61.32;101248.94;5042155;28;19918;-74
2021/03/23 15:50:57;;;;;;;;;;;;;;;14.44;60.97;101254.00;5030500;28;19920;-74
2021/03/23 15:53:35;;;;;;;;;;;;;;;14.41;62.00;101242.59;5004875;28;19912;-74
2021/03/23 15:56:01;;;;;;;;;;;;;;;14.36;61.50;101246.28;5018150;28;19943;-74
2021/03/23 15:58:26;;;;;;;;;;;;;;;14.35;62.25;101238.19;5018939;28;20015;-74
2021/03/23 16:00:56;;;;;;;;;;;;;;;14.29;60.20;101234.66;5031149;28;20016;-74
2021/03/23 16:03:22;;;;;;;;;;;;;;;14.21;59.77;101240.94;5019541;28;19917;-74
2021/03/23 16:05:48;;;;;;;;;;;;;;;14.14;59.42;101230.13;5046635;28;19967;-74
2021/03/23 16:08:25;;;;;;;;;;;;;;;14.04;58.52;101233.03;5038872;28;20370;-74
2021/03/23 16:10:53;;;;;;;;;;;;;;;13.98;60.95;101235.06;5049633;28;19925;-74
2021/03/23 16:13:19;;;;;;;;;;;;;;;13.92;61.01;101236.28;5020966;28;20321;-74
2021/03/23 16:15:44;;;;;;;;;;;;;;;13.85;60.45;101230.22;5039239;28;19971;-74
2021/03/23 16:18:13;;;;;;;;;;;;;;;13.82;61.52;101230.84;5004918;28;19917;-74
2021/03/23 16:20:39;;;;;;;;;;;;;;;13.74;61.26;101228.69;5034485;28;19917;-74
2021/03/23 16:23:13;;;;;;;;;;;;;;;13.67;60.35;101217.88;5056513;28;19924;-74
2021/03/23 16:25:38;;;;;;;;;;;;;;;13.58;61.02;101217.69;5065559;28;19927;-74
2021/03/23 16:28:07;;;;;;;;;;;;;;;13.53;62.54;101216.94;5011443;28;20357;-74
2021/03/23 16:30:33;;;;;;;;;;;;;;;13.47;62.29;101216.16;5033957;28;19921;-74
2021/03/23 16:32:58;;;;;;;;;;;;;;;13.40;62.32;101212.91;5052213;28;19921;-74
2021/03/23 16:35:34;;;;;;;;;;;;;;;13.33;61.93;101218.00;5056274;28;19920;-74
2021/03/23 16:38:01;;;;;;;;;;;;;;;13.24;62.70;101209.41;5040325;28;19925;-74
2021/03/23 16:40:27;;;;;;;;;;;;;;;13.18;62.67;101210.59;5028873;28;19920;-74
2021/03/23 16:43:01;;;;;;;;;;;;;;;13.11;63.03;101213.72;5056952;28;20000;-74
2021/03/23 16:45:32;;;;;;;;;;;;;;;13.05;63.08;101209.31;5014161;28;20062;-74
2021/03/23 16:48:01;;;;;;;;;;;;;;;12.99;62.63;101213.28;5022581;28;19912;-74
2021/03/23 16:50:27;;;;;;;;;;;;;;;12.91;63.33;101216.72;5056615;28;19917;-74
2021/03/23 16:52:58;;;;;;;;;;;;;;;12.87;63.29;101222.03;5038577;28;20259;-75
2021/03/23 16:55:27;;;;;;;;;;;;;;;12.79;63.54;101228.25;5038673;28;19919;-74
2021/03/23 16:58:03;;;;;;;;;;;;;;;12.72;63.11;101228.56;5033421;28;19916;-75
2021/03/23 17:00:52;;;;;;;;;;;;;;;12.62;62.96;101225.88;5016793;28;19921;-74
2021/03/23 17:03:26;;;;;;;;;;;;;;;12.54;63.66;101240.41;5000716;28;19913;-75
2021/03/23 17:06:02;;;;;;;;;;;;;;;12.48;63.91;101239.63;5008902;28;19917;-75
2021/03/23 17:08:33;;;;;;;;;;;;;;;12.42;63.70;101237.16;5003411;28;20366;-74
2021/03/23 17:11:11;;;;;;;;;;;;;;;12.34;63.38;101230.25;5034624;28;20376;-74
2021/03/23 17:13:47;;;;;;;;;;;;;;;12.25;63.77;101227.22;5019161;28;19922;-74
2021/03/23 17:16:13;;;;;;;;;;;;;;;12.19;64.14;101233.94;5038229;28;20016;-74
2021/03/23 17:18:38;;;;;;;;;;;;;;;12.13;64.59;101229.53;5021332;28;19949;-75
2021/03/23 17:21:09;;;;;;;;;;;;;;;12.06;64.42;101241.00;5017536;28;20433;-74
2021/03/23 17:23:47;;;;;;;;;;;;;;;12.00;64.70;101236.53;5010771;28;19917;-75
2021/03/23 17:26:23;;;;;;;;;;;;;;;11.93;64.35;101244.38;5046048;28;20285;-75
2021/03/23 17:28:54;;;;;;;;;;;;;;;11.87;64.06;101241.91;5007129;28;19986;-75
2021/03/23 17:31:23;;;;;;;;;;;;;;;11.79;64.65;101237.75;5008408;28;19932;-74
2021/03/23 17:33:58;;;;;;;;;;;;;;;11.72;65.22;101223.28;5018397;28;19917;-75
2021/03/23 17:36:29;;;;;;;;;;;;;;;11.65;65.33;101234.72;5017622;28;19917;-74
2021/03/23 17:39:01;;;;;;;;;;;;;;;11.57;65.28;101233.38;5028828;28;20003;-75
2021/03/23 17:41:49;;;;;;;;;;;;;;;11.51;65.60;101233.66;5021595;28;20445;-75
2021/03/23 17:44:15;;;;;;;;;;;;;;;11.43;65.71;101237.03;5024164;28;19917;-74
2021/03/23 17:46:40;;;;;;;;;;;;;;;11.36;65.97;101229.78;5008766;28;19948;-74
2021/03/23 17:49:15;;;;;;;;;;;;;;;11.29;65.76;101243.16;5015077;28;20390;-74
2021/03/23 17:51:43;;;;;;;;;;;;;;;11.22;65.58;101237.06;5030738;28;19925;-75
2021/03/23 17:54:11;;;;;;;;;;;;;;;11.16;64.99;101246.53;5042565;28;19917;-75
2021/03/23 17:56:45;;;;;;;;;;;;;;;11.10;66.22;101247.66;5010531;28;19980;-75
2021/03/23 17:59:25;;;;;;;;;;;;;;;11.04;66.58;101257.13;5025875;28;20008;-78
2021/03/23 18:01:51;;;;;;;;;;;;;;;10.95;66.51;101263.22;5034188;28;19921;-75
2021/03/23 18:04:16;;;;;;;;;;;;;;;10.89;66.61;101263.50;4999076;28;19917;-74
2021/03/23 18:06:43;;;;;;;;;;;;;;;10.82;66.49;101263.78;5036452;28;19953;-74
2021/03/23 18:09:11;;;;;;;;;;;;;;;10.74;66.27;101262.38;5002849;28;19917;-74